sensor_id;sensor_type;location;lat;lon;timestamp;P1;durP1;ratioP1;P2;durP2;ratioP2
41141;SDS011;63666;52.284;20.890;2023-04-24T00:00:44;6.30;;;4.60;;
41141;SDS011;63666;52.284;20.890;2023-04-24T00:03:27;6.70;;;4.60;;
41141;SDS011;63666;52.284;20.890;2023-04-24T00:06:03;5.70;;;4.50;;
41141;SDS011;63666;52.284;20.890;2023-04-24T00:08:37;6.00;;;4.50;;
41141;SDS011;63666;52.284;20.890;2023-04-24T00:11:13;6.50;;;4.80;;
41141;SDS011;63666;52.284;20.890;2023-04-24T00:13:47;6.00;;;4.70;;
41141;SDS011;63666;52.284;20.890;2023-04-24T00:16:22;6.10;;;4.90;;
41141;SDS011;63666;52.284;20.890;2023-04-24T00:19:02;6.50;;;4.60;;
41141;SDS011;63666;52.284;20.890;2023-04-24T00:21:41;6.00;;;4.50;;
41141;SDS011;63666;52.284;20.890;2023-04-24T00:24:18;5.90;;;4.70;;
41141;SDS011;63666;52.284;20.890;2023-04-24T00:26:53;5.80;;;4.60;;
41141;SDS011;63666;52.284;20.890;2023-04-24T00:29:30;5.70;;;4.60;;
41141;SDS011;63666;52.284;20.890;2023-04-24T00:32:04;5.80;;;4.60;;
41141;SDS011;63666;52.284;20.890;2023-04-24T00:34:41;6.20;;;4.60;;
41141;SDS011;63666;52.284;20.890;2023-04-24T00:37:16;6.50;;;5.00;;
41141;SDS011;63666;52.284;20.890;2023-04-24T00:39:51;5.80;;;4.70;;
41141;SDS011;63666;52.284;20.890;2023-04-24T00:42:26;6.10;;;4.80;;
41141;SDS011;63666;52.284;20.890;2023-04-24T00:45:02;6.50;;;4.90;;
41141;SDS011;63666;52.284;20.890;2023-04-24T00:47:38;6.10;;;4.90;;
41141;SDS011;63666;52.284;20.890;2023-04-24T00:50:14;6.10;;;4.80;;
41141;SDS011;63666;52.284;20.890;2023-04-24T00:52:50;5.40;;;4.50;;
41141;SDS011;63666;52.284;20.890;2023-04-24T00:55:23;6.00;;;4.60;;
41141;SDS011;63666;52.284;20.890;2023-04-24T00:57:59;6.00;;;4.80;;
41141;SDS011;63666;52.284;20.890;2023-04-24T01:00:34;6.50;;;5.20;;
41141;SDS011;63666;52.284;20.890;2023-04-24T01:03:12;6.00;;;4.70;;
41141;SDS011;63666;52.284;20.890;2023-04-24T01:05:48;6.10;;;4.90;;
41141;SDS011;63666;52.284;20.890;2023-04-24T01:08:25;6.80;;;5.00;;
41141;SDS011;63666;52.284;20.890;2023-04-24T01:11:01;6.00;;;4.80;;
41141;SDS011;63666;52.284;20.890;2023-04-24T01:13:38;6.00;;;4.90;;
41141;SDS011;63666;52.284;20.890;2023-04-24T01:16:16;6.00;;;5.00;;
41141;SDS011;63666;52.284;20.890;2023-04-24T01:18:51;6.30;;;4.90;;
41141;SDS011;63666;52.284;20.890;2023-04-24T01:21:27;6.00;;;4.70;;
41141;SDS011;63666;52.284;20.890;2023-04-24T01:24:04;6.50;;;5.00;;
41141;SDS011;63666;52.284;20.890;2023-04-24T01:26:39;6.00;;;5.00;;
41141;SDS011;63666;52.284;20.890;2023-04-24T01:29:14;6.10;;;4.90;;
41141;SDS011;63666;52.284;20.890;2023-04-24T01:31:50;6.30;;;5.20;;
41141;SDS011;63666;52.284;20.890;2023-04-24T01:34:24;6.60;;;5.10;;
41141;SDS011;63666;52.284;20.890;2023-04-24T01:36:59;5.50;;;4.70;;
41141;SDS011;63666;52.284;20.890;2023-04-24T01:39:33;6.20;;;5.10;;
41141;SDS011;63666;52.284;20.890;2023-04-24T01:42:10;6.00;;;4.90;;
41141;SDS011;63666;52.284;20.890;2023-04-24T01:44:46;6.20;;;5.00;;
41141;SDS011;63666;52.284;20.890;2023-04-24T01:47:22;6.40;;;5.20;;
41141;SDS011;63666;52.284;20.890;2023-04-24T01:49:59;6.30;;;5.10;;
41141;SDS011;63666;52.284;20.890;2023-04-24T01:52:33;5.90;;;5.30;;
41141;SDS011;63666;52.284;20.890;2023-04-24T01:55:10;6.00;;;5.20;;
41141;SDS011;63666;52.284;20.890;2023-04-24T01:57:45;6.10;;;5.10;;
41141;SDS011;63666;52.284;20.890;2023-04-24T02:00:21;6.20;;;5.10;;
41141;SDS011;63666;52.284;20.890;2023-04-24T02:02:57;6.10;;;5.30;;
41141;SDS011;63666;52.284;20.890;2023-04-24T02:05:33;5.90;;;5.00;;
41141;SDS011;63666;52.284;20.890;2023-04-24T02:08:11;6.20;;;5.00;;
41141;SDS011;63666;52.284;20.890;2023-04-24T02:10:45;7.10;;;5.40;;
41141;SDS011;63666;52.284;20.890;2023-04-24T02:13:21;6.10;;;5.20;;
41141;SDS011;63666;52.284;20.890;2023-04-24T02:15:59;6.00;;;5.30;;
41141;SDS011;63666;52.284;20.890;2023-04-24T02:18:36;6.20;;;5.20;;
41141;SDS011;63666;52.284;20.890;2023-04-24T02:21:13;6.30;;;5.40;;
41141;SDS011;63666;52.284;20.890;2023-04-24T02:23:48;6.60;;;5.30;;
41141;SDS011;63666;52.284;20.890;2023-04-24T02:26:23;6.70;;;5.40;;
41141;SDS011;63666;52.284;20.890;2023-04-24T02:28:57;6.20;;;5.40;;
41141;SDS011;63666;52.284;20.890;2023-04-24T02:31:33;6.10;;;5.40;;
41141;SDS011;63666;52.284;20.890;2023-04-24T02:34:07;6.10;;;5.00;;
41141;SDS011;63666;52.284;20.890;2023-04-24T02:36:41;6.20;;;5.30;;
41141;SDS011;63666;52.284;20.890;2023-04-24T02:39:17;6.30;;;5.60;;
41141;SDS011;63666;52.284;20.890;2023-04-24T02:41:50;6.30;;;5.10;;
41141;SDS011;63666;52.284;20.890;2023-04-24T02:44:25;6.40;;;5.30;;
41141;SDS011;63666;52.284;20.890;2023-04-24T02:47:01;6.30;;;5.40;;
41141;SDS011;63666;52.284;20.890;2023-04-24T02:49:38;6.70;;;5.40;;
41141;SDS011;63666;52.284;20.890;2023-04-24T02:52:13;6.80;;;5.70;;
41141;SDS011;63666;52.284;20.890;2023-04-24T02:54:49;6.90;;;5.70;;
41141;SDS011;63666;52.284;20.890;2023-04-24T02:57:26;6.30;;;5.30;;
41141;SDS011;63666;52.284;20.890;2023-04-24T03:00:01;6.50;;;5.60;;
41141;SDS011;63666;52.284;20.890;2023-04-24T03:02:39;6.60;;;5.70;;
41141;SDS011;63666;52.284;20.890;2023-04-24T03:05:15;6.60;;;5.50;;
41141;SDS011;63666;52.284;20.890;2023-04-24T03:07:50;6.70;;;5.40;;
41141;SDS011;63666;52.284;20.890;2023-04-24T03:10:24;6.20;;;5.50;;
41141;SDS011;63666;52.284;20.890;2023-04-24T03:12:59;6.50;;;5.50;;
41141;SDS011;63666;52.284;20.890;2023-04-24T03:15:34;6.50;;;5.60;;
41141;SDS011;63666;52.284;20.890;2023-04-24T03:18:07;6.30;;;5.30;;
41141;SDS011;63666;52.284;20.890;2023-04-24T03:20:41;6.80;;;5.60;;
41141;SDS011;63666;52.284;20.890;2023-04-24T03:23:17;6.60;;;5.50;;
41141;SDS011;63666;52.284;20.890;2023-04-24T03:25:51;6.40;;;5.40;;
41141;SDS011;63666;52.284;20.890;2023-04-24T03:28:25;6.90;;;5.50;;
41141;SDS011;63666;52.284;20.890;2023-04-24T03:30:59;7.60;;;5.40;;
41141;SDS011;63666;52.284;20.890;2023-04-24T03:33:33;6.60;;;5.50;;
41141;SDS011;63666;52.284;20.890;2023-04-24T03:36:09;6.50;;;5.40;;
41141;SDS011;63666;52.284;20.890;2023-04-24T03:38:45;6.90;;;5.80;;
41141;SDS011;63666;52.284;20.890;2023-04-24T03:41:19;6.70;;;5.30;;
41141;SDS011;63666;52.284;20.890;2023-04-24T03:43:54;6.50;;;5.70;;
41141;SDS011;63666;52.284;20.890;2023-04-24T03:46:30;6.90;;;5.50;;
41141;SDS011;63666;52.284;20.890;2023-04-24T03:49:04;7.30;;;5.80;;
41141;SDS011;63666;52.284;20.890;2023-04-24T03:51:39;7.00;;;5.80;;
41141;SDS011;63666;52.284;20.890;2023-04-24T03:54:15;8.40;;;5.80;;
41141;SDS011;63666;52.284;20.890;2023-04-24T03:56:50;7.70;;;6.00;;
41141;SDS011;63666;52.284;20.890;2023-04-24T03:59:27;7.50;;;5.80;;
41141;SDS011;63666;52.284;20.890;2023-04-24T04:02:02;7.20;;;5.40;;
41141;SDS011;63666;52.284;20.890;2023-04-24T04:04:37;7.30;;;5.70;;
41141;SDS011;63666;52.284;20.890;2023-04-24T04:07:11;7.70;;;5.90;;
41141;SDS011;63666;52.284;20.890;2023-04-24T04:09:47;7.00;;;5.90;;
41141;SDS011;63666;52.284;20.890;2023-04-24T04:12:22;7.10;;;5.80;;
41141;SDS011;63666;52.284;20.890;2023-04-24T04:14:57;7.10;;;5.70;;
41141;SDS011;63666;52.284;20.890;2023-04-24T04:17:34;7.20;;;5.90;;
41141;SDS011;63666;52.284;20.890;2023-04-24T04:20:11;7.20;;;6.10;;
41141;SDS011;63666;52.284;20.890;2023-04-24T04:22:46;6.50;;;5.60;;
41141;SDS011;63666;52.284;20.890;2023-04-24T04:25:23;6.60;;;5.90;;
41141;SDS011;63666;52.284;20.890;2023-04-24T04:27:56;7.70;;;6.30;;
41141;SDS011;63666;52.284;20.890;2023-04-24T04:30:31;7.50;;;6.20;;
41141;SDS011;63666;52.284;20.890;2023-04-24T04:33:06;6.90;;;5.70;;
41141;SDS011;63666;52.284;20.890;2023-04-24T04:35:41;6.80;;;6.00;;
41141;SDS011;63666;52.284;20.890;2023-04-24T04:38:17;6.80;;;6.10;;
41141;SDS011;63666;52.284;20.890;2023-04-24T04:40:55;7.30;;;6.00;;
41141;SDS011;63666;52.284;20.890;2023-04-24T04:43:30;7.60;;;5.90;;
41141;SDS011;63666;52.284;20.890;2023-04-24T04:46:05;6.90;;;6.10;;
41141;SDS011;63666;52.284;20.890;2023-04-24T04:48:41;6.90;;;5.90;;
41141;SDS011;63666;52.284;20.890;2023-04-24T04:51:15;7.30;;;6.00;;
41141;SDS011;63666;52.284;20.890;2023-04-24T04:53:50;7.10;;;5.90;;
41141;SDS011;63666;52.284;20.890;2023-04-24T04:56:25;7.90;;;6.00;;
41141;SDS011;63666;52.284;20.890;2023-04-24T04:59:03;7.70;;;6.50;;
41141;SDS011;63666;52.284;20.890;2023-04-24T05:01:38;8.00;;;6.50;;
41141;SDS011;63666;52.284;20.890;2023-04-24T05:04:12;6.90;;;5.70;;
41141;SDS011;63666;52.284;20.890;2023-04-24T05:06:47;7.80;;;6.30;;
41141;SDS011;63666;52.284;20.890;2023-04-24T05:09:23;6.90;;;6.10;;
41141;SDS011;63666;52.284;20.890;2023-04-24T05:12:02;7.40;;;5.90;;
41141;SDS011;63666;52.284;20.890;2023-04-24T05:14:38;7.40;;;6.20;;
41141;SDS011;63666;52.284;20.890;2023-04-24T05:17:12;7.70;;;6.40;;
41141;SDS011;63666;52.284;20.890;2023-04-24T05:19:47;7.00;;;6.10;;
41141;SDS011;63666;52.284;20.890;2023-04-24T05:22:22;7.70;;;6.00;;
41141;SDS011;63666;52.284;20.890;2023-04-24T05:24:56;7.20;;;6.20;;
41141;SDS011;63666;52.284;20.890;2023-04-24T05:27:33;7.50;;;6.20;;
41141;SDS011;63666;52.284;20.890;2023-04-24T05:30:10;7.70;;;6.30;;
41141;SDS011;63666;52.284;20.890;2023-04-24T05:32:44;7.10;;;6.00;;
41141;SDS011;63666;52.284;20.890;2023-04-24T05:35:20;7.40;;;6.50;;
41141;SDS011;63666;52.284;20.890;2023-04-24T05:37:56;8.00;;;6.60;;
41141;SDS011;63666;52.284;20.890;2023-04-24T05:40:31;7.90;;;6.50;;
41141;SDS011;63666;52.284;20.890;2023-04-24T05:43:07;7.00;;;6.30;;
41141;SDS011;63666;52.284;20.890;2023-04-24T05:45:42;7.50;;;6.60;;
41141;SDS011;63666;52.284;20.890;2023-04-24T05:48:16;7.20;;;6.30;;
41141;SDS011;63666;52.284;20.890;2023-04-24T05:50:54;7.40;;;6.20;;
41141;SDS011;63666;52.284;20.890;2023-04-24T05:53:30;6.80;;;5.90;;
41141;SDS011;63666;52.284;20.890;2023-04-24T05:56:06;7.00;;;6.00;;
41141;SDS011;63666;52.284;20.890;2023-04-24T05:58:40;6.80;;;6.00;;
41141;SDS011;63666;52.284;20.890;2023-04-24T06:01:15;7.80;;;6.30;;
41141;SDS011;63666;52.284;20.890;2023-04-24T06:03:52;7.30;;;6.30;;
41141;SDS011;63666;52.284;20.890;2023-04-24T06:06:30;7.40;;;6.10;;
41141;SDS011;63666;52.284;20.890;2023-04-24T06:09:05;7.30;;;5.90;;
41141;SDS011;63666;52.284;20.890;2023-04-24T06:11:41;7.60;;;6.00;;
41141;SDS011;63666;52.284;20.890;2023-04-24T06:14:16;7.30;;;6.20;;
41141;SDS011;63666;52.284;20.890;2023-04-24T06:16:50;7.20;;;6.00;;
41141;SDS011;63666;52.284;20.890;2023-04-24T06:19:26;8.00;;;6.20;;
41141;SDS011;63666;52.284;20.890;2023-04-24T06:22:00;7.20;;;6.20;;
41141;SDS011;63666;52.284;20.890;2023-04-24T06:24:35;7.40;;;6.10;;
41141;SDS011;63666;52.284;20.890;2023-04-24T06:27:11;7.70;;;6.30;;
41141;SDS011;63666;52.284;20.890;2023-04-24T06:29:47;7.40;;;6.30;;
41141;SDS011;63666;52.284;20.890;2023-04-24T06:32:26;7.10;;;6.10;;
41141;SDS011;63666;52.284;20.890;2023-04-24T06:35:03;7.00;;;6.10;;
41141;SDS011;63666;52.284;20.890;2023-04-24T06:37:44;8.00;;;6.30;;
41141;SDS011;63666;52.284;20.890;2023-04-24T06:40:19;7.50;;;6.10;;
41141;SDS011;63666;52.284;20.890;2023-04-24T06:42:54;7.60;;;6.40;;
41141;SDS011;63666;52.284;20.890;2023-04-24T06:45:30;7.90;;;6.50;;
41141;SDS011;63666;52.284;20.890;2023-04-24T06:48:05;7.00;;;6.00;;
41141;SDS011;63666;52.284;20.890;2023-04-24T06:50:40;8.10;;;6.50;;
41141;SDS011;63666;52.284;20.890;2023-04-24T06:53:16;7.50;;;6.60;;
41141;SDS011;63666;52.284;20.890;2023-04-24T06:55:53;7.60;;;6.30;;
41141;SDS011;63666;52.284;20.890;2023-04-24T06:58:29;7.80;;;6.90;;
41141;SDS011;63666;52.284;20.890;2023-04-24T07:01:06;8.00;;;7.10;;
41141;SDS011;63666;52.284;20.890;2023-04-24T07:03:39;9.00;;;7.60;;
41141;SDS011;63666;52.284;20.890;2023-04-24T07:06:20;10.20;;;8.00;;
41141;SDS011;63666;52.284;20.890;2023-04-24T07:08:56;10.70;;;8.00;;
41141;SDS011;63666;52.284;20.890;2023-04-24T07:11:32;11.80;;;7.90;;
41141;SDS011;63666;52.284;20.890;2023-04-24T07:14:09;9.50;;;7.90;;
41141;SDS011;63666;52.284;20.890;2023-04-24T07:16:46;12.50;;;8.20;;
41141;SDS011;63666;52.284;20.890;2023-04-24T07:19:22;10.70;;;8.20;;
41141;SDS011;63666;52.284;20.890;2023-04-24T07:21:57;10.60;;;7.90;;
41141;SDS011;63666;52.284;20.890;2023-04-24T07:24:33;12.60;;;8.20;;
41141;SDS011;63666;52.284;20.890;2023-04-24T07:27:09;11.30;;;7.90;;
41141;SDS011;63666;52.284;20.890;2023-04-24T07:29:46;12.40;;;8.00;;
41141;SDS011;63666;52.284;20.890;2023-04-24T07:32:20;11.50;;;8.30;;
41141;SDS011;63666;52.284;20.890;2023-04-24T07:34:54;10.70;;;8.10;;
41141;SDS011;63666;52.284;20.890;2023-04-24T07:37:30;10.60;;;8.20;;
41141;SDS011;63666;52.284;20.890;2023-04-24T07:40:06;10.30;;;8.20;;
41141;SDS011;63666;52.284;20.890;2023-04-24T07:42:41;10.80;;;8.20;;
41141;SDS011;63666;52.284;20.890;2023-04-24T07:45:21;11.20;;;8.10;;
41141;SDS011;63666;52.284;20.890;2023-04-24T07:47:56;10.00;;;8.60;;
41141;SDS011;63666;52.284;20.890;2023-04-24T07:50:33;9.80;;;8.40;;
41141;SDS011;63666;52.284;20.890;2023-04-24T07:53:09;9.90;;;8.20;;
41141;SDS011;63666;52.284;20.890;2023-04-24T07:55:45;10.60;;;8.30;;
41141;SDS011;63666;52.284;20.890;2023-04-24T07:58:22;10.20;;;8.50;;
41141;SDS011;63666;52.284;20.890;2023-04-24T08:00:57;11.30;;;8.10;;
41141;SDS011;63666;52.284;20.890;2023-04-24T08:03:31;10.40;;;7.80;;
41141;SDS011;63666;52.284;20.890;2023-04-24T08:06:06;11.50;;;8.00;;
41141;SDS011;63666;52.284;20.890;2023-04-24T08:08:40;9.40;;;7.90;;
41141;SDS011;63666;52.284;20.890;2023-04-24T08:11:16;9.80;;;8.10;;
41141;SDS011;63666;52.284;20.890;2023-04-24T08:13:49;8.80;;;7.50;;
41141;SDS011;63666;52.284;20.890;2023-04-24T08:16:26;8.50;;;7.60;;
41141;SDS011;63666;52.284;20.890;2023-04-24T08:19:01;10.00;;;7.70;;
41141;SDS011;63666;52.284;20.890;2023-04-24T08:21:37;9.20;;;7.90;;
41141;SDS011;63666;52.284;20.890;2023-04-24T08:24:12;9.20;;;7.30;;
41141;SDS011;63666;52.284;20.890;2023-04-24T08:26:49;9.20;;;7.20;;
41141;SDS011;63666;52.284;20.890;2023-04-24T08:29:26;9.20;;;7.30;;
41141;SDS011;63666;52.284;20.890;2023-04-24T08:32:02;9.60;;;7.50;;
41141;SDS011;63666;52.284;20.890;2023-04-24T08:34:36;9.40;;;7.60;;
41141;SDS011;63666;52.284;20.890;2023-04-24T08:37:12;9.30;;;7.50;;
41141;SDS011;63666;52.284;20.890;2023-04-24T08:39:45;9.50;;;7.30;;
41141;SDS011;63666;52.284;20.890;2023-04-24T08:42:20;9.80;;;7.50;;
41141;SDS011;63666;52.284;20.890;2023-04-24T08:44:55;8.20;;;7.30;;
41141;SDS011;63666;52.284;20.890;2023-04-24T08:47:31;9.20;;;7.20;;
41141;SDS011;63666;52.284;20.890;2023-04-24T08:50:08;9.50;;;7.60;;
41141;SDS011;63666;52.284;20.890;2023-04-24T08:52:43;8.50;;;7.00;;
41141;SDS011;63666;52.284;20.890;2023-04-24T08:55:20;8.60;;;7.10;;
41141;SDS011;63666;52.284;20.890;2023-04-24T08:57:56;8.80;;;7.70;;
41141;SDS011;63666;52.284;20.890;2023-04-24T09:00:31;10.20;;;8.00;;
41141;SDS011;63666;52.284;20.890;2023-04-24T09:03:07;9.90;;;7.30;;
41141;SDS011;63666;52.284;20.890;2023-04-24T09:05:42;9.10;;;7.30;;
41141;SDS011;63666;52.284;20.890;2023-04-24T09:08:20;8.60;;;7.60;;
41141;SDS011;63666;52.284;20.890;2023-04-24T09:10:59;8.30;;;7.10;;
41141;SDS011;63666;52.284;20.890;2023-04-24T09:13:37;9.60;;;7.60;;
41141;SDS011;63666;52.284;20.890;2023-04-24T09:16:12;9.80;;;8.00;;
41141;SDS011;63666;52.284;20.890;2023-04-24T09:18:48;8.80;;;7.50;;
41141;SDS011;63666;52.284;20.890;2023-04-24T09:21:23;9.10;;;7.70;;
41141;SDS011;63666;52.284;20.890;2023-04-24T09:24:01;8.80;;;7.60;;
41141;SDS011;63666;52.284;20.890;2023-04-24T09:26:41;9.10;;;7.50;;
41141;SDS011;63666;52.284;20.890;2023-04-24T09:29:22;9.70;;;7.80;;
41141;SDS011;63666;52.284;20.890;2023-04-24T09:31:57;9.60;;;8.10;;
41141;SDS011;63666;52.284;20.890;2023-04-24T09:34:32;9.20;;;7.60;;
41141;SDS011;63666;52.284;20.890;2023-04-24T09:37:07;9.00;;;7.60;;
41141;SDS011;63666;52.284;20.890;2023-04-24T09:39:41;8.20;;;7.20;;
41141;SDS011;63666;52.284;20.890;2023-04-24T09:42:16;9.10;;;7.90;;
41141;SDS011;63666;52.284;20.890;2023-04-24T09:44:52;9.70;;;7.60;;
41141;SDS011;63666;52.284;20.890;2023-04-24T09:47:44;8.10;;;7.20;;
41141;SDS011;63666;52.284;20.890;2023-04-24T09:50:18;8.50;;;7.60;;
41141;SDS011;63666;52.284;20.890;2023-04-24T09:53:01;8.70;;;7.40;;
41141;SDS011;63666;52.284;20.890;2023-04-24T09:55:46;10.00;;;7.50;;
41141;SDS011;63666;52.284;20.890;2023-04-24T09:58:26;9.40;;;7.30;;
41141;SDS011;63666;52.284;20.890;2023-04-24T10:01:00;8.50;;;7.20;;
41141;SDS011;63666;52.284;20.890;2023-04-24T10:03:36;8.70;;;7.30;;
41141;SDS011;63666;52.284;20.890;2023-04-24T10:06:13;7.90;;;7.00;;
41141;SDS011;63666;52.284;20.890;2023-04-24T10:08:47;8.60;;;7.40;;
41141;SDS011;63666;52.284;20.890;2023-04-24T10:11:23;7.90;;;6.90;;
41141;SDS011;63666;52.284;20.890;2023-04-24T10:13:59;8.30;;;7.00;;
41141;SDS011;63666;52.284;20.890;2023-04-24T10:16:35;8.40;;;7.00;;
41141;SDS011;63666;52.284;20.890;2023-04-24T10:19:12;7.80;;;6.80;;
41141;SDS011;63666;52.284;20.890;2023-04-24T10:21:48;8.00;;;7.10;;
41141;SDS011;63666;52.284;20.890;2023-04-24T10:24:25;7.90;;;6.70;;
41141;SDS011;63666;52.284;20.890;2023-04-24T10:26:59;7.50;;;6.70;;
41141;SDS011;63666;52.284;20.890;2023-04-24T10:29:39;7.70;;;6.90;;
41141;SDS011;63666;52.284;20.890;2023-04-24T10:32:17;8.40;;;6.90;;
41141;SDS011;63666;52.284;20.890;2023-04-24T10:34:53;8.60;;;6.80;;
41141;SDS011;63666;52.284;20.890;2023-04-24T10:37:30;8.00;;;6.30;;
41141;SDS011;63666;52.284;20.890;2023-04-24T10:40:11;7.40;;;6.40;;
41141;SDS011;63666;52.284;20.890;2023-04-24T10:42:53;7.30;;;6.30;;
41141;SDS011;63666;52.284;20.890;2023-04-24T10:45:29;7.60;;;6.60;;
41141;SDS011;63666;52.284;20.890;2023-04-24T10:48:04;6.90;;;6.20;;
41141;SDS011;63666;52.284;20.890;2023-04-24T10:50:48;7.40;;;6.60;;
41141;SDS011;63666;52.284;20.890;2023-04-24T10:53:29;6.80;;;6.10;;
41141;SDS011;63666;52.284;20.890;2023-04-24T10:56:06;7.80;;;6.40;;
41141;SDS011;63666;52.284;20.890;2023-04-24T10:58:52;7.20;;;6.00;;
41141;SDS011;63666;52.284;20.890;2023-04-24T11:01:28;8.30;;;6.00;;
41141;SDS011;63666;52.284;20.890;2023-04-24T11:04:05;7.20;;;6.00;;
41141;SDS011;63666;52.284;20.890;2023-04-24T11:06:42;7.60;;;6.40;;
41141;SDS011;63666;52.284;20.890;2023-04-24T11:09:17;7.50;;;6.30;;
41141;SDS011;63666;52.284;20.890;2023-04-24T11:12:04;7.20;;;6.00;;
41141;SDS011;63666;52.284;20.890;2023-04-24T11:15:03;6.80;;;6.00;;
41141;SDS011;63666;52.284;20.890;2023-04-24T11:17:38;7.00;;;6.10;;
41141;SDS011;63666;52.284;20.890;2023-04-24T11:20:18;6.80;;;6.00;;
41141;SDS011;63666;52.284;20.890;2023-04-24T11:23:05;7.10;;;5.90;;
41141;SDS011;63666;52.284;20.890;2023-04-24T11:25:40;7.20;;;5.80;;
41141;SDS011;63666;52.284;20.890;2023-04-24T11:28:16;6.60;;;5.70;;
41141;SDS011;63666;52.284;20.890;2023-04-24T11:30:54;6.70;;;5.80;;
41141;SDS011;63666;52.284;20.890;2023-04-24T11:33:31;6.70;;;5.70;;
41141;SDS011;63666;52.284;20.890;2023-04-24T11:36:07;6.40;;;5.60;;
41141;SDS011;63666;52.284;20.890;2023-04-24T11:38:41;6.50;;;5.80;;
41141;SDS011;63666;52.284;20.890;2023-04-24T11:41:16;7.00;;;6.20;;
41141;SDS011;63666;52.284;20.890;2023-04-24T11:43:54;6.40;;;5.80;;
41141;SDS011;63666;52.284;20.890;2023-04-24T11:46:32;6.30;;;5.30;;
41141;SDS011;63666;52.284;20.890;2023-04-24T11:49:08;6.50;;;5.50;;
41141;SDS011;63666;52.284;20.890;2023-04-24T11:51:45;6.40;;;5.40;;
41141;SDS011;63666;52.284;20.890;2023-04-24T11:54:25;6.30;;;5.60;;
41141;SDS011;63666;52.284;20.890;2023-04-24T11:57:06;6.40;;;5.70;;
41141;SDS011;63666;52.284;20.890;2023-04-24T11:59:42;6.20;;;5.20;;
41141;SDS011;63666;52.284;20.890;2023-04-24T12:02:26;6.40;;;5.30;;
41141;SDS011;63666;52.284;20.890;2023-04-24T12:05:02;6.00;;;5.20;;
41141;SDS011;63666;52.284;20.890;2023-04-24T12:07:43;6.00;;;5.00;;
41141;SDS011;63666;52.284;20.890;2023-04-24T12:10:21;6.40;;;5.30;;
41141;SDS011;63666;52.284;20.890;2023-04-24T12:12:57;6.20;;;5.00;;
41141;SDS011;63666;52.284;20.890;2023-04-24T12:15:34;5.90;;;5.00;;
41141;SDS011;63666;52.284;20.890;2023-04-24T12:18:13;5.90;;;5.00;;
41141;SDS011;63666;52.284;20.890;2023-04-24T12:20:47;6.80;;;5.30;;
41141;SDS011;63666;52.284;20.890;2023-04-24T12:23:35;5.80;;;4.90;;
41141;SDS011;63666;52.284;20.890;2023-04-24T12:26:11;5.70;;;4.70;;
41141;SDS011;63666;52.284;20.890;2023-04-24T12:28:50;5.90;;;4.60;;
41141;SDS011;63666;52.284;20.890;2023-04-24T12:31:25;5.70;;;4.60;;
41141;SDS011;63666;52.284;20.890;2023-04-24T12:34:01;5.70;;;4.80;;
41141;SDS011;63666;52.284;20.890;2023-04-24T12:36:36;5.90;;;4.60;;
41141;SDS011;63666;52.284;20.890;2023-04-24T12:39:17;5.80;;;4.80;;
41141;SDS011;63666;52.284;20.890;2023-04-24T12:41:57;5.90;;;5.20;;
41141;SDS011;63666;52.284;20.890;2023-04-24T12:44:34;6.30;;;5.00;;
41141;SDS011;63666;52.284;20.890;2023-04-24T12:47:09;5.60;;;4.80;;
41141;SDS011;63666;52.284;20.890;2023-04-24T12:49:44;5.70;;;4.80;;
41141;SDS011;63666;52.284;20.890;2023-04-24T12:52:19;5.60;;;4.70;;
41141;SDS011;63666;52.284;20.890;2023-04-24T12:54:57;6.20;;;4.70;;
41141;SDS011;63666;52.284;20.890;2023-04-24T12:57:32;6.70;;;4.90;;
41141;SDS011;63666;52.284;20.890;2023-04-24T13:00:08;6.50;;;4.70;;
41141;SDS011;63666;52.284;20.890;2023-04-24T13:02:48;6.00;;;5.00;;
41141;SDS011;63666;52.284;20.890;2023-04-24T13:05:22;6.00;;;4.60;;
41141;SDS011;63666;52.284;20.890;2023-04-24T13:07:59;7.00;;;4.80;;
41141;SDS011;63666;52.284;20.890;2023-04-24T13:10:33;6.40;;;4.90;;
41141;SDS011;63666;52.284;20.890;2023-04-24T13:13:11;6.70;;;4.70;;
41141;SDS011;63666;52.284;20.890;2023-04-24T13:15:47;6.50;;;4.60;;
41141;SDS011;63666;52.284;20.890;2023-04-24T13:18:21;6.40;;;4.70;;
41141;SDS011;63666;52.284;20.890;2023-04-24T13:20:57;5.70;;;4.50;;
41141;SDS011;63666;52.284;20.890;2023-04-24T13:23:33;5.80;;;4.70;;
41141;SDS011;63666;52.284;20.890;2023-04-24T13:26:09;5.60;;;4.60;;
41141;SDS011;63666;52.284;20.890;2023-04-24T13:28:42;6.50;;;4.70;;
41141;SDS011;63666;52.284;20.890;2023-04-24T13:31:17;6.10;;;4.70;;
41141;SDS011;63666;52.284;20.890;2023-04-24T13:33:51;6.50;;;4.40;;
41141;SDS011;63666;52.284;20.890;2023-04-24T13:36:25;6.20;;;4.70;;
41141;SDS011;63666;52.284;20.890;2023-04-24T13:39:04;5.50;;;4.40;;
41141;SDS011;63666;52.284;20.890;2023-04-24T13:41:39;5.70;;;4.60;;
41141;SDS011;63666;52.284;20.890;2023-04-24T13:44:14;5.80;;;4.60;;
41141;SDS011;63666;52.284;20.890;2023-04-24T13:46:51;5.70;;;4.30;;
41141;SDS011;63666;52.284;20.890;2023-04-24T13:49:27;6.10;;;4.70;;
41141;SDS011;63666;52.284;20.890;2023-04-24T13:52:03;5.90;;;4.50;;
41141;SDS011;63666;52.284;20.890;2023-04-24T13:54:38;6.60;;;4.70;;
41141;SDS011;63666;52.284;20.890;2023-04-24T13:57:13;6.00;;;4.50;;
41141;SDS011;63666;52.284;20.890;2023-04-24T13:59:47;5.80;;;4.50;;
41141;SDS011;63666;52.284;20.890;2023-04-24T14:02:21;5.40;;;4.30;;
41141;SDS011;63666;52.284;20.890;2023-04-24T14:04:55;5.90;;;4.20;;
41141;SDS011;63666;52.284;20.890;2023-04-24T14:07:31;5.70;;;4.20;;
41141;SDS011;63666;52.284;20.890;2023-04-24T14:10:07;5.60;;;4.40;;
41141;SDS011;63666;52.284;20.890;2023-04-24T14:12:41;4.80;;;4.10;;
41141;SDS011;63666;52.284;20.890;2023-04-24T14:15:16;6.10;;;4.60;;
41141;SDS011;63666;52.284;20.890;2023-04-24T14:17:52;5.50;;;4.60;;
41141;SDS011;63666;52.284;20.890;2023-04-24T14:20:26;6.80;;;4.50;;
41141;SDS011;63666;52.284;20.890;2023-04-24T14:23:02;5.60;;;4.20;;
41141;SDS011;63666;52.284;20.890;2023-04-24T14:25:39;5.60;;;4.40;;
41141;SDS011;63666;52.284;20.890;2023-04-24T14:28:13;5.90;;;4.30;;
41141;SDS011;63666;52.284;20.890;2023-04-24T14:30:49;5.20;;;4.20;;
41141;SDS011;63666;52.284;20.890;2023-04-24T14:33:23;5.50;;;4.40;;
41141;SDS011;63666;52.284;20.890;2023-04-24T14:35:58;6.20;;;4.20;;
41141;SDS011;63666;52.284;20.890;2023-04-24T14:38:33;5.50;;;4.30;;
41141;SDS011;63666;52.284;20.890;2023-04-24T14:41:07;5.60;;;4.40;;
41141;SDS011;63666;52.284;20.890;2023-04-24T14:43:44;5.50;;;4.40;;
41141;SDS011;63666;52.284;20.890;2023-04-24T14:46:19;5.40;;;4.20;;
41141;SDS011;63666;52.284;20.890;2023-04-24T14:48:54;6.40;;;4.60;;
41141;SDS011;63666;52.284;20.890;2023-04-24T14:51:28;5.30;;;4.40;;
41141;SDS011;63666;52.284;20.890;2023-04-24T14:54:04;5.50;;;4.50;;
41141;SDS011;63666;52.284;20.890;2023-04-24T14:56:39;5.40;;;4.30;;
41141;SDS011;63666;52.284;20.890;2023-04-24T14:59:15;5.40;;;4.30;;
41141;SDS011;63666;52.284;20.890;2023-04-24T15:01:50;6.00;;;4.40;;
41141;SDS011;63666;52.284;20.890;2023-04-24T15:04:45;5.70;;;4.40;;
41141;SDS011;63666;52.284;20.890;2023-04-24T15:07:19;5.70;;;4.30;;
41141;SDS011;63666;52.284;20.890;2023-04-24T15:09:54;5.80;;;4.40;;
41141;SDS011;63666;52.284;20.890;2023-04-24T15:12:28;6.20;;;4.40;;
41141;SDS011;63666;52.284;20.890;2023-04-24T15:15:03;5.90;;;4.40;;
41141;SDS011;63666;52.284;20.890;2023-04-24T15:17:39;5.40;;;4.40;;
41141;SDS011;63666;52.284;20.890;2023-04-24T15:20:14;5.30;;;4.20;;
41141;SDS011;63666;52.284;20.890;2023-04-24T15:22:49;5.50;;;4.10;;
41141;SDS011;63666;52.284;20.890;2023-04-24T15:25:23;5.50;;;4.30;;